createdAt,value
2018-04-08T00:00:12.607Z,0
2018-04-08T00:01:13.320Z,0
2018-04-08T00:02:14.034Z,0
2018-04-08T00:03:14.746Z,0
2018-04-08T00:04:15.460Z,0
2018-04-08T00:05:16.187Z,0
2018-04-08T00:06:16.901Z,0
2018-04-08T00:07:17.617Z,0
2018-04-08T00:08:18.332Z,0
2018-04-08T00:09:19.048Z,0
2018-04-08T00:10:19.762Z,0
2018-04-08T00:11:20.475Z,0
2018-04-08T00:12:21.191Z,0
2018-04-08T00:13:21.906Z,0
2018-04-08T00:14:22.617Z,0
2018-04-08T00:15:23.329Z,0
2018-04-08T00:16:24.044Z,0
2018-04-08T00:17:24.757Z,0
2018-04-08T00:18:25.469Z,0
2018-04-08T00:19:26.184Z,0
2018-04-08T00:20:26.899Z,0
2018-04-08T00:21:27.612Z,0
2018-04-08T00:22:28.328Z,0
2018-04-08T00:23:29.055Z,0
2018-04-08T00:24:29.766Z,0
2018-04-08T00:25:30.482Z,0
2018-04-08T00:26:31.194Z,0
2018-04-08T00:27:31.910Z,0
2018-04-08T00:28:32.621Z,0
2018-04-08T00:29:33.332Z,0
2018-04-08T00:30:34.046Z,0
2018-04-08T00:31:34.758Z,0
2018-04-08T00:32:35.470Z,0
2018-04-08T00:33:36.200Z,0
2018-04-08T00:34:36.931Z,0
2018-04-08T00:35:37.654Z,0
2018-04-08T00:36:38.368Z,0
2018-04-08T00:37:39.080Z,0
2018-04-08T00:38:39.795Z,0
2018-04-08T00:39:40.510Z,0
2018-04-08T00:40:41.226Z,0
2018-04-08T00:41:41.941Z,0
2018-04-08T00:42:42.656Z,0
2018-04-08T00:43:43.372Z,0
2018-04-08T00:44:44.085Z,0
2018-04-08T00:45:44.800Z,0
2018-04-08T00:46:45.512Z,0
2018-04-08T00:47:46.227Z,0
2018-04-08T00:48:46.939Z,0
2018-04-08T00:49:47.664Z,0
2018-04-08T00:50:48.378Z,0
2018-04-08T00:51:49.091Z,0
2018-04-08T00:52:49.806Z,0
2018-04-08T00:53:50.521Z,0
2018-04-08T00:54:51.234Z,0
2018-04-08T00:55:51.950Z,0
2018-04-08T00:56:52.677Z,0
2018-04-08T00:57:53.393Z,0
2018-04-08T00:58:54.110Z,0
2018-04-08T00:59:54.839Z,0
2018-04-08T01:00:55.548Z,0
2018-04-08T01:01:56.261Z,0
2018-04-08T01:02:56.986Z,0
2018-04-08T01:03:57.701Z,0
2018-04-08T01:04:58.416Z,0
2018-04-08T01:05:59.128Z,0
2018-04-08T01:06:59.842Z,0
2018-04-08T01:08:00.555Z,0
2018-04-08T01:09:01.268Z,0
2018-04-08T01:10:01.984Z,0
2018-04-08T01:11:02.697Z,0
2018-04-08T01:12:03.413Z,0
2018-04-08T01:13:04.168Z,0
2018-04-08T01:14:04.841Z,0
2018-04-08T01:15:05.557Z,0
2018-04-08T01:16:06.317Z,0
2018-04-08T01:17:06.996Z,0
2018-04-08T01:18:07.707Z,0
2018-04-08T01:19:08.420Z,0
2018-04-08T01:20:09.135Z,0
2018-04-08T01:21:09.850Z,0
2018-04-08T01:22:10.563Z,0
2018-04-08T01:23:11.278Z,0
2018-04-08T01:24:11.992Z,0
2018-04-08T01:25:12.705Z,0
2018-04-08T01:26:13.420Z,0
2018-04-08T01:27:14.132Z,0
2018-04-08T01:28:14.845Z,0
2018-04-08T01:29:15.560Z,0
2018-04-08T01:30:16.285Z,0
2018-04-08T01:31:17.012Z,0
2018-04-08T01:32:17.757Z,0
2018-04-08T01:33:18.485Z,0
2018-04-08T01:34:19.208Z,0
2018-04-08T01:35:19.930Z,0
2018-04-08T01:36:20.668Z,0
2018-04-08T01:37:21.393Z,0
2018-04-08T01:38:22.155Z,0
2018-04-08T01:39:22.883Z,0
2018-04-08T01:40:23.607Z,0
2018-04-08T01:41:24.331Z,0
2018-04-08T01:42:25.067Z,0
2018-04-08T01:43:25.788Z,0
2018-04-08T01:44:26.515Z,0
2018-04-08T01:45:27.512Z,0
2018-04-08T01:46:28.271Z,0
2018-04-08T01:47:29.032Z,0
2018-04-08T01:48:29.758Z,0
2018-04-08T01:49:30.481Z,0
2018-04-08T01:50:31.229Z,0
2018-04-08T01:51:31.966Z,0
2018-04-08T01:52:32.687Z,0
2018-04-08T01:53:33.423Z,0
2018-04-08T01:54:34.186Z,0
2018-04-08T01:55:34.922Z,0
2018-04-08T01:56:35.656Z,0
2018-04-08T01:57:36.427Z,0
2018-04-08T01:58:37.151Z,0
2018-04-08T01:59:37.872Z,0
2018-04-08T02:00:38.597Z,0
2018-04-08T02:01:39.335Z,0
2018-04-08T02:02:40.054Z,0
2018-04-08T02:03:40.814Z,0
2018-04-08T02:04:41.548Z,0
2018-04-08T02:05:42.274Z,0
2018-04-08T02:06:42.997Z,0
2018-04-08T02:07:43.747Z,0
2018-04-08T02:08:44.472Z,0
2018-04-08T02:09:45.195Z,0
2018-04-08T02:10:45.921Z,0
2018-04-08T02:11:46.646Z,0
2018-04-08T02:12:47.396Z,0
2018-04-08T02:13:48.120Z,0
2018-04-08T02:14:48.848Z,0
2018-04-08T02:15:49.574Z,0
2018-04-08T02:16:50.299Z,0
2018-04-08T02:17:51.038Z,0
2018-04-08T02:18:51.796Z,0
2018-04-08T02:19:52.523Z,0
2018-04-08T02:20:53.283Z,0
2018-04-08T02:21:54.010Z,0
2018-04-08T02:22:54.773Z,0
2018-04-08T02:23:55.543Z,0
2018-04-08T02:24:56.270Z,0
2018-04-08T02:25:56.993Z,0
2018-04-08T02:26:57.718Z,0
2018-04-08T02:27:58.470Z,0
2018-04-08T02:28:59.190Z,0
2018-04-08T02:29:59.911Z,0
2018-04-08T02:31:00.658Z,0
2018-04-08T02:32:01.382Z,0
2018-04-08T02:33:02.130Z,0
2018-04-08T02:34:02.842Z,0
2018-04-08T02:35:03.601Z,0
2018-04-08T02:36:04.325Z,0
2018-04-08T02:37:05.051Z,0
2018-04-08T02:38:05.786Z,0
2018-04-08T02:39:06.520Z,0
2018-04-08T02:40:07.254Z,0
2018-04-08T02:41:08.023Z,0
2018-04-08T02:42:08.793Z,0
2018-04-08T02:43:09.561Z,0
2018-04-08T02:44:10.311Z,0
2018-04-08T02:45:11.035Z,0
2018-04-08T02:46:11.769Z,0
2018-04-08T02:47:12.495Z,0
2018-04-08T02:48:13.229Z,0
2018-04-08T02:49:13.952Z,0
2018-04-08T02:50:14.678Z,0
2018-04-08T02:51:15.432Z,0
2018-04-08T02:52:16.148Z,0
2018-04-08T02:53:16.873Z,0
2018-04-08T02:54:17.620Z,0
2018-04-08T02:55:18.357Z,0
2018-04-08T02:56:19.119Z,0
2018-04-08T02:57:19.845Z,0
2018-04-08T02:58:20.579Z,0
2018-04-08T02:59:21.316Z,0
2018-04-08T03:00:22.040Z,0
2018-04-08T03:01:22.774Z,0
2018-04-08T03:02:23.509Z,0
2018-04-08T03:03:24.267Z,0
2018-04-08T03:04:24.990Z,0
2018-04-08T03:05:25.714Z,0
2018-04-08T03:06:26.475Z,0
2018-04-08T03:07:27.209Z,0
2018-04-08T03:08:27.936Z,0
2018-04-08T03:09:28.696Z,0
2018-04-08T03:10:29.419Z,0
2018-04-08T03:11:30.145Z,0
2018-04-08T03:12:30.878Z,0
2018-04-08T03:13:31.604Z,0
2018-04-08T03:14:32.340Z,0
2018-04-08T03:15:33.064Z,0
2018-04-08T03:16:33.785Z,0
2018-04-08T03:17:34.533Z,0
2018-04-08T03:18:35.256Z,0
2018-04-08T03:19:36.004Z,0
2018-04-08T03:20:36.751Z,0
2018-04-08T03:21:37.476Z,0
2018-04-08T03:22:38.213Z,0
2018-04-08T03:23:38.971Z,0
2018-04-08T03:24:39.729Z,0
2018-04-08T03:25:40.467Z,0
2018-04-08T03:26:41.221Z,0
2018-04-08T03:27:41.945Z,0
2018-04-08T03:28:42.680Z,0
2018-04-08T03:29:43.403Z,0
2018-04-08T03:30:44.138Z,0
2018-04-08T03:31:44.866Z,0
2018-04-08T03:32:45.586Z,0
2018-04-08T03:33:46.310Z,0
2018-04-08T03:34:47.058Z,0
2018-04-08T03:35:47.783Z,0
2018-04-08T03:36:48.529Z,0
2018-04-08T03:37:49.254Z,0
2018-04-08T03:38:49.980Z,0
2018-04-08T03:39:50.705Z,0
2018-04-08T03:40:51.432Z,0
2018-04-08T03:41:52.177Z,0
2018-04-08T03:42:52.904Z,0
2018-04-08T03:43:53.637Z,0
2018-04-08T03:44:54.371Z,0
2018-04-08T03:45:55.106Z,0
2018-04-08T03:46:55.865Z,0
2018-04-08T03:47:56.589Z,0
2018-04-08T03:48:57.315Z,0
2018-04-08T03:49:58.050Z,0
2018-04-08T03:50:58.810Z,0
2018-04-08T03:51:59.545Z,0
2018-04-08T03:53:00.269Z,0
2018-04-08T03:54:00.994Z,0
2018-04-08T03:55:01.730Z,0
2018-04-08T03:56:02.490Z,0
2018-04-08T03:57:03.212Z,0
2018-04-08T03:58:03.948Z,0
2018-04-08T03:59:04.672Z,0
2018-04-08T04:00:05.408Z,0
2018-04-08T04:01:06.143Z,0
2018-04-08T04:02:06.881Z,0
2018-04-08T04:03:07.638Z,0
2018-04-08T04:04:08.363Z,0
2018-04-08T04:05:09.091Z,0
2018-04-08T04:06:09.812Z,0
2018-04-08T04:07:10.547Z,0
2018-04-08T04:08:11.282Z,0
2018-04-08T04:09:12.009Z,0
2018-04-08T04:10:12.732Z,0
2018-04-08T04:11:13.457Z,0
2018-04-08T04:12:14.183Z,0
2018-04-08T04:13:14.913Z,0
2018-04-08T04:14:15.639Z,0
2018-04-08T04:15:16.363Z,0
2018-04-08T04:16:17.091Z,0
2018-04-08T04:17:17.837Z,0
2018-04-08T04:18:18.563Z,0
2018-04-08T04:19:19.300Z,0
2018-04-08T04:20:20.024Z,0
2018-04-08T04:21:20.770Z,0
2018-04-08T04:22:21.512Z,0
2018-04-08T04:23:22.277Z,0
2018-04-08T04:24:23.002Z,0
2018-04-08T04:25:23.736Z,0
2018-04-08T04:26:24.459Z,0
2018-04-08T04:27:25.184Z,0
2018-04-08T04:28:25.908Z,0
2018-04-08T04:29:26.632Z,0
2018-04-08T04:30:27.360Z,0
2018-04-08T04:31:28.084Z,0
2018-04-08T04:32:28.842Z,0
2018-04-08T04:33:29.564Z,0
2018-04-08T04:34:30.291Z,0
2018-04-08T04:35:31.022Z,0
2018-04-08T04:36:31.777Z,0
2018-04-08T04:37:32.515Z,0
2018-04-08T04:38:33.248Z,0
2018-04-08T04:39:33.973Z,0
2018-04-08T04:40:34.699Z,0
2018-04-08T04:41:35.425Z,0
2018-04-08T04:42:36.149Z,0
2018-04-08T04:43:36.885Z,0
2018-04-08T04:44:37.620Z,0
2018-04-08T04:45:38.369Z,0
2018-04-08T04:46:39.084Z,5
2018-04-08T04:47:39.809Z,5
2018-04-08T04:48:40.559Z,5
2018-04-08T04:49:41.304Z,5
2018-04-08T04:50:42.032Z,5
2018-04-08T04:51:42.786Z,5
2018-04-08T04:52:43.511Z,5
2018-04-08T04:53:44.236Z,5
2018-04-08T04:54:44.986Z,10
2018-04-08T04:55:45.733Z,10
2018-04-08T04:56:46.454Z,10
2018-04-08T04:57:47.181Z,10
2018-04-08T04:58:47.914Z,10
2018-04-08T04:59:48.645Z,15
2018-04-08T05:00:49.371Z,15
2018-04-08T05:01:50.122Z,15
2018-04-08T05:02:50.872Z,15
2018-04-08T05:03:51.611Z,20
2018-04-08T05:04:52.350Z,20
2018-04-08T05:05:53.076Z,20
2018-04-08T05:06:53.816Z,25
2018-04-08T05:07:54.570Z,25
2018-04-08T05:08:55.307Z,25
2018-04-08T05:09:56.076Z,30
2018-04-08T05:10:56.821Z,30
2018-04-08T05:11:57.548Z,30
2018-04-08T05:12:58.286Z,35
2018-04-08T05:13:59.024Z,35
2018-04-08T05:14:59.765Z,35
2018-04-08T05:16:00.493Z,35
2018-04-08T05:17:01.233Z,35
2018-04-08T05:18:01.972Z,35
2018-04-08T05:19:02.701Z,40
2018-04-08T05:20:03.429Z,40
2018-04-08T05:21:04.161Z,40
2018-04-08T05:22:04.929Z,45
2018-04-08T05:23:05.721Z,45
2018-04-08T05:24:06.419Z,45
2018-04-08T05:25:07.162Z,50
2018-04-08T05:26:07.885Z,50
2018-04-08T05:27:08.647Z,50
2018-04-08T05:28:09.376Z,55
2018-04-08T05:29:10.130Z,55
2018-04-08T05:30:10.868Z,55
2018-04-08T05:31:11.594Z,60
2018-04-08T05:32:12.333Z,60
2018-04-08T05:33:13.063Z,60
2018-04-08T05:34:13.790Z,65
2018-04-08T05:35:14.519Z,65
2018-04-08T05:36:15.248Z,70
2018-04-08T05:37:15.977Z,70
2018-04-08T05:38:16.704Z,70
2018-04-08T05:39:17.432Z,75
2018-04-08T05:40:18.184Z,75
2018-04-08T05:41:18.915Z,75
2018-04-08T05:42:19.665Z,75
2018-04-08T05:43:20.405Z,75
2018-04-08T05:44:21.133Z,80
2018-04-08T05:45:21.863Z,80
2018-04-08T05:46:22.603Z,85
2018-04-08T05:47:23.335Z,85
2018-04-08T05:48:24.085Z,85
2018-04-08T05:49:24.838Z,80
2018-04-08T05:50:25.566Z,80
2018-04-08T05:51:26.307Z,80
2018-04-08T05:52:27.069Z,80
2018-04-08T05:53:27.799Z,80
2018-04-08T05:54:28.536Z,80
2018-04-08T05:55:29.261Z,80
2018-04-08T05:56:30.024Z,80
2018-04-08T05:57:30.756Z,80
2018-04-08T05:58:31.487Z,80
2018-04-08T05:59:32.238Z,75
2018-04-08T06:00:32.990Z,75
2018-04-08T06:01:33.719Z,75
2018-04-08T06:02:34.448Z,75
2018-04-08T06:03:35.211Z,75
2018-04-08T06:04:35.938Z,70
2018-04-08T06:05:36.702Z,70
2018-04-08T06:06:37.432Z,70
2018-04-08T06:07:38.162Z,70
2018-04-08T06:08:38.893Z,65
2018-04-08T06:09:39.622Z,65
2018-04-08T06:10:40.362Z,70
2018-04-08T06:11:41.092Z,70
2018-04-08T06:12:41.832Z,70
2018-04-08T06:13:42.572Z,70
2018-04-08T06:14:43.312Z,75
2018-04-08T06:15:44.057Z,70
2018-04-08T06:16:44.816Z,75
2018-04-08T06:17:45.545Z,75
2018-04-08T06:18:46.274Z,75
2018-04-08T06:19:47.037Z,75
2018-04-08T06:20:47.767Z,75
2018-04-08T06:21:48.495Z,75
2018-04-08T06:22:49.236Z,80
2018-04-08T06:23:50.002Z,80
2018-04-08T06:24:50.736Z,80
2018-04-08T06:25:51.462Z,80
2018-04-08T06:26:52.202Z,80
2018-04-08T06:27:52.930Z,85
2018-04-08T06:28:53.681Z,85
2018-04-08T06:29:54.410Z,85
2018-04-08T06:30:55.142Z,85
2018-04-08T06:31:55.885Z,90
2018-04-08T06:32:56.616Z,90
2018-04-08T06:33:57.345Z,95
2018-04-08T06:34:58.088Z,100
2018-04-08T06:35:58.852Z,100
2018-04-08T06:36:59.593Z,105
2018-04-08T06:38:00.334Z,105
2018-04-08T06:39:01.098Z,105
2018-04-08T06:40:01.828Z,105
2018-04-08T06:41:02.558Z,110
2018-04-08T06:42:03.290Z,115
2018-04-08T06:43:04.033Z,115
2018-04-08T06:44:04.765Z,120
2018-04-08T06:45:05.495Z,120
2018-04-08T06:46:06.261Z,120
2018-04-08T06:47:06.990Z,125
2018-04-08T06:48:07.745Z,125
2018-04-08T06:49:08.503Z,125
2018-04-08T06:50:09.237Z,130
2018-04-08T06:51:09.968Z,130
2018-04-08T06:52:10.700Z,130
2018-04-08T06:53:11.443Z,140
2018-04-08T06:54:12.176Z,135
2018-04-08T06:55:12.913Z,145
2018-04-08T06:56:13.681Z,140
2018-04-08T06:57:14.423Z,140
2018-04-08T06:58:15.167Z,150
2018-04-08T06:59:15.899Z,145
2018-04-08T07:00:16.690Z,150
2018-04-08T07:01:17.390Z,150
2018-04-08T07:02:18.148Z,155
2018-04-08T07:03:18.880Z,155
2018-04-08T07:04:19.612Z,155
2018-04-08T07:05:20.401Z,155
2018-04-08T07:06:21.097Z,160
2018-04-08T07:07:21.834Z,160
2018-04-08T07:08:22.590Z,165
2018-04-08T07:09:23.324Z,170
2018-04-08T07:10:24.067Z,175
2018-04-08T07:11:24.797Z,175
2018-04-08T07:12:25.528Z,180
2018-04-08T07:13:26.271Z,180
2018-04-08T07:14:26.999Z,185
2018-04-08T07:15:27.733Z,185
2018-04-08T07:16:28.465Z,190
2018-04-08T07:17:29.196Z,190
2018-04-08T07:18:29.993Z,190
2018-04-08T07:19:30.694Z,190
2018-04-08T07:20:31.468Z,190
2018-04-08T07:21:32.191Z,195
2018-04-08T07:22:32.957Z,195
2018-04-08T07:23:33.689Z,195
2018-04-08T07:24:34.464Z,195
2018-04-08T07:25:35.240Z,200
2018-04-08T07:26:36.014Z,205
2018-04-08T07:27:36.779Z,210
2018-04-08T07:28:37.533Z,210
2018-04-08T07:29:38.268Z,220
2018-04-08T07:30:39.012Z,230
2018-04-08T07:31:39.794Z,245
2018-04-08T07:32:40.641Z,260
2018-04-08T07:33:41.318Z,270
2018-04-08T07:34:42.083Z,290
2018-04-08T07:35:42.819Z,310
2018-04-08T07:36:43.553Z,350
2018-04-08T07:37:44.299Z,565
2018-04-08T07:38:45.034Z,560
2018-04-08T07:39:45.767Z,585
2018-04-08T07:40:46.502Z,415
2018-04-08T07:41:47.241Z,510
2018-04-08T07:42:47.976Z,615
2018-04-08T07:43:48.734Z,690
2018-04-08T07:44:49.473Z,620
2018-04-08T07:45:50.216Z,725
2018-04-08T07:46:50.953Z,710
2018-04-08T07:47:51.692Z,475
2018-04-08T07:48:52.443Z,710
2018-04-08T07:49:53.204Z,680
2018-04-08T07:50:53.966Z,765
2018-04-08T07:51:54.745Z,655
2018-04-08T07:52:55.488Z,630
2018-04-08T07:53:56.231Z,695
2018-04-08T07:54:56.971Z,645
2018-04-08T07:55:57.723Z,585
2018-04-08T07:56:58.465Z,675
2018-04-08T07:57:59.203Z,790
2018-04-08T07:58:59.955Z,830
2018-04-08T08:00:00.734Z,735
2018-04-08T08:01:01.475Z,770
2018-04-08T08:02:02.221Z,680
2018-04-08T08:03:02.964Z,745
2018-04-08T08:04:03.719Z,675
2018-04-08T08:05:04.458Z,780
2018-04-08T08:06:05.220Z,910
2018-04-08T08:07:05.970Z,775
2018-04-08T08:08:06.725Z,675
2018-04-08T08:09:07.476Z,800
2018-04-08T08:10:08.229Z,650
2018-04-08T08:11:09.014Z,510
2018-04-08T08:12:09.750Z,575
2018-04-08T08:13:10.501Z,475
2018-04-08T08:14:11.230Z,640
2018-04-08T08:15:11.972Z,965
2018-04-08T08:16:12.713Z,1005
2018-04-08T08:17:13.464Z,880
2018-04-08T08:18:14.257Z,980
2018-04-08T08:19:14.949Z,880
2018-04-08T08:20:15.692Z,1020
2018-04-08T08:21:16.435Z,1055
2018-04-08T08:22:17.176Z,1000
2018-04-08T08:23:17.918Z,920
2018-04-08T08:24:18.671Z,685
2018-04-08T08:25:19.414Z,800
2018-04-08T08:26:20.154Z,985
2018-04-08T08:27:20.895Z,1075
2018-04-08T08:28:21.672Z,870
2018-04-08T08:29:22.451Z,1110
2018-04-08T08:30:23.204Z,915
2018-04-08T08:31:23.982Z,605
2018-04-08T08:32:24.725Z,770
2018-04-08T08:33:25.504Z,780
2018-04-08T08:34:26.280Z,725
2018-04-08T08:35:27.023Z,785
2018-04-08T08:36:27.768Z,715
2018-04-08T08:37:28.521Z,675
2018-04-08T08:38:29.264Z,740
2018-04-08T08:39:30.005Z,750
2018-04-08T08:40:30.760Z,780
2018-04-08T08:41:31.513Z,535
2018-04-08T08:42:32.265Z,560
2018-04-08T08:43:33.009Z,870
2018-04-08T08:44:33.752Z,1175
2018-04-08T08:45:34.503Z,1200
2018-04-08T08:46:35.250Z,1215
2018-04-08T08:47:36.004Z,1230
2018-04-08T08:48:36.750Z,1255
2018-04-08T08:49:37.505Z,1295
2018-04-08T08:50:38.250Z,1295
2018-04-08T08:51:39.021Z,1290
2018-04-08T08:52:39.776Z,1275
2018-04-08T08:53:40.538Z,1340
2018-04-08T08:54:41.316Z,1180
2018-04-08T08:55:42.071Z,780
2018-04-08T08:56:42.818Z,1305
2018-04-08T08:57:43.575Z,1295
2018-04-08T08:58:44.320Z,1320
2018-04-08T08:59:45.066Z,1355
2018-04-08T09:00:45.833Z,1350
2018-04-08T09:01:46.581Z,1365
2018-04-08T09:02:47.327Z,1365
2018-04-08T09:03:48.075Z,1240
2018-04-08T09:04:48.822Z,1265
2018-04-08T09:05:49.571Z,1325
2018-04-08T09:06:50.356Z,1175
2018-04-08T09:07:51.101Z,1135
2018-04-08T09:08:51.858Z,1030
2018-04-08T09:09:52.619Z,925
2018-04-08T09:10:53.360Z,930
2018-04-08T09:11:54.116Z,1070
2018-04-08T09:12:54.861Z,1350
2018-04-08T09:13:55.610Z,1455
2018-04-08T09:14:56.357Z,1305
2018-04-08T09:15:57.129Z,1200
2018-04-08T09:16:57.877Z,1410
2018-04-08T09:17:58.621Z,1470
2018-04-08T09:18:59.367Z,1185
2018-04-08T09:20:00.132Z,1240
2018-04-08T09:21:00.883Z,1500
2018-04-08T09:22:01.631Z,1485
2018-04-08T09:23:02.375Z,1460
2018-04-08T09:24:03.155Z,1480
2018-04-08T09:25:03.941Z,1465
2018-04-08T09:26:04.696Z,1375
2018-04-08T09:27:05.452Z,1270
2018-04-08T09:28:06.202Z,1185
2018-04-08T09:29:06.958Z,990
2018-04-08T09:30:07.714Z,905
2018-04-08T09:31:08.460Z,1045
2018-04-08T09:32:09.217Z,1260
2018-04-08T09:33:09.963Z,985
2018-04-08T09:34:10.707Z,1120
2018-04-08T09:35:11.454Z,1020
2018-04-08T09:36:12.256Z,885
2018-04-08T09:37:13.016Z,820
2018-04-08T09:38:13.761Z,785
2018-04-08T09:39:14.504Z,885
2018-04-08T09:40:15.261Z,880
2018-04-08T09:41:16.006Z,795
2018-04-08T09:42:16.760Z,770
2018-04-08T09:43:17.506Z,860
2018-04-08T09:44:18.257Z,1450
2018-04-08T09:45:19.006Z,1500
2018-04-08T09:46:19.749Z,995
2018-04-08T09:47:20.505Z,880
2018-04-08T09:48:21.261Z,870
2018-04-08T09:49:22.041Z,1255
2018-04-08T09:50:22.797Z,1040
2018-04-08T09:51:23.544Z,1000
2018-04-08T09:52:24.325Z,1235
2018-04-08T09:53:25.082Z,1645
2018-04-08T09:54:25.827Z,1670
2018-04-08T09:55:26.596Z,1690
2018-04-08T09:56:27.344Z,1715
2018-04-08T09:57:28.102Z,1745
2018-04-08T09:58:28.851Z,1785
2018-04-08T09:59:29.627Z,1720
2018-04-08T10:00:30.380Z,1705
2018-04-08T10:01:31.134Z,1670
2018-04-08T10:02:31.891Z,1805
2018-04-08T10:03:32.649Z,1725
2018-04-08T10:04:33.409Z,1690
2018-04-08T10:05:34.266Z,1750
2018-04-08T10:06:34.994Z,1805
2018-04-08T10:07:35.758Z,1795
2018-04-08T10:08:36.510Z,1770
2018-04-08T10:09:37.264Z,1765
2018-04-08T10:10:38.020Z,1755
2018-04-08T10:11:38.773Z,1805
2018-04-08T10:12:39.524Z,1895
2018-04-08T10:13:40.302Z,1925
2018-04-08T10:14:41.059Z,1650
2018-04-08T10:15:41.825Z,1785
2018-04-08T10:16:42.591Z,1190
2018-04-08T10:17:43.392Z,1170
2018-04-08T10:18:44.157Z,1370
2018-04-08T10:19:44.909Z,960
2018-04-08T10:20:45.672Z,975
2018-04-08T10:21:46.423Z,1200
2018-04-08T10:22:47.234Z,1030
2018-04-08T10:23:47.961Z,1160
2018-04-08T10:24:48.737Z,1435
2018-04-08T10:25:49.495Z,1265
2018-04-08T10:26:50.245Z,1450
2018-04-08T10:27:51.004Z,1155
2018-04-08T10:28:51.796Z,1160
2018-04-08T10:29:52.552Z,1315
2018-04-08T10:30:53.307Z,1410
2018-04-08T10:31:54.064Z,1800
2018-04-08T10:32:54.818Z,1375
2018-04-08T10:33:55.577Z,1400
2018-04-08T10:34:56.374Z,1145
2018-04-08T10:35:57.128Z,1060
2018-04-08T10:36:57.890Z,1675
2018-04-08T10:37:58.648Z,1010
2018-04-08T10:38:59.404Z,885
2018-04-08T10:40:00.159Z,825
2018-04-08T10:41:00.912Z,800
2018-04-08T10:42:01.662Z,905
2018-04-08T10:43:02.437Z,1475
2018-04-08T10:44:03.225Z,1100
2018-04-08T10:45:04.012Z,825
2018-04-08T10:46:04.772Z,700
2018-04-08T10:47:05.521Z,690
2018-04-08T10:48:06.277Z,690
2018-04-08T10:49:07.033Z,725
2018-04-08T10:50:07.779Z,760
2018-04-08T10:51:08.521Z,805
2018-04-08T10:52:09.304Z,725
2018-04-08T10:53:10.075Z,740
2018-04-08T10:54:10.821Z,815
2018-04-08T10:55:11.561Z,925
2018-04-08T10:56:12.307Z,825
2018-04-08T10:57:13.053Z,800
2018-04-08T10:58:13.832Z,750
2018-04-08T10:59:14.549Z,700
2018-04-08T11:00:15.293Z,685
2018-04-08T11:01:16.041Z,665
2018-04-08T11:02:16.808Z,650
2018-04-08T11:03:17.560Z,625
2018-04-08T11:04:18.304Z,615
2018-04-08T11:05:19.050Z,615
2018-04-08T11:06:19.793Z,615
2018-04-08T11:07:20.536Z,615
2018-04-08T11:08:21.291Z,625
2018-04-08T11:09:22.034Z,595
2018-04-08T11:10:22.776Z,600
2018-04-08T11:11:23.546Z,630
2018-04-08T11:12:24.288Z,680
2018-04-08T11:13:25.034Z,730
2018-04-08T11:14:25.788Z,845
2018-04-08T11:15:26.540Z,860
2018-04-08T11:16:27.285Z,1170
2018-04-08T11:17:28.028Z,1130
2018-04-08T11:18:28.775Z,1140
2018-04-08T11:19:29.540Z,1415
2018-04-08T11:20:30.283Z,1740
2018-04-08T11:21:31.028Z,1895
2018-04-08T11:22:31.821Z,2010
2018-04-08T11:23:32.543Z,1910
2018-04-08T11:24:33.287Z,1960
2018-04-08T11:25:34.037Z,1955
2018-04-08T11:26:34.785Z,1965
2018-04-08T11:27:35.535Z,1975
2018-04-08T11:28:36.301Z,1950
2018-04-08T11:29:37.056Z,1925
2018-04-08T11:30:37.813Z,1920
2018-04-08T11:31:38.578Z,1945
2018-04-08T11:32:39.370Z,1935
2018-04-08T11:33:40.123Z,1925
2018-04-08T11:34:40.887Z,1930
2018-04-08T11:35:41.653Z,1990
2018-04-08T11:36:42.407Z,1960
2018-04-08T11:37:43.162Z,1720
2018-04-08T11:38:43.927Z,1740
2018-04-08T11:39:44.680Z,1640
2018-04-08T11:40:45.441Z,1695
2018-04-08T11:41:46.201Z,1845
2018-04-08T11:42:46.953Z,1450
2018-04-08T11:43:47.707Z,1850
2018-04-08T11:44:48.481Z,1945
2018-04-08T11:45:49.235Z,1560
2018-04-08T11:46:49.989Z,1730
2018-04-08T11:47:50.741Z,1835
2018-04-08T11:48:51.521Z,1865
2018-04-08T11:49:52.271Z,1915
2018-04-08T11:50:53.037Z,1935
2018-04-08T11:51:53.803Z,1940
2018-04-08T11:52:54.559Z,1950
2018-04-08T11:53:55.308Z,1895
2018-04-08T11:54:56.064Z,1525
2018-04-08T11:55:56.818Z,915
2018-04-08T11:56:57.569Z,1110
2018-04-08T11:57:58.318Z,1510
2018-04-08T11:58:59.078Z,1610
2018-04-08T11:59:59.835Z,1700
2018-04-08T12:01:00.621Z,2035
2018-04-08T12:02:01.393Z,2025
2018-04-08T12:03:02.184Z,2010
2018-04-08T12:04:02.934Z,2050
2018-04-08T12:05:03.686Z,1565
2018-04-08T12:06:04.450Z,1515
2018-04-08T12:07:05.240Z,1500
2018-04-08T12:08:05.988Z,1605
2018-04-08T12:09:06.737Z,1750
2018-04-08T12:10:07.509Z,1850
2018-04-08T12:11:08.270Z,1885
2018-04-08T12:12:09.020Z,1905
2018-04-08T12:13:09.768Z,1855
2018-04-08T12:14:10.519Z,1835
2018-04-08T12:15:11.308Z,1885
2018-04-08T12:16:12.074Z,1915
2018-04-08T12:17:12.819Z,1975
2018-04-08T12:18:13.572Z,2070
2018-04-08T12:19:14.338Z,2040
2018-04-08T12:20:15.086Z,1870
2018-04-08T12:21:15.838Z,1840
2018-04-08T12:22:16.587Z,1860
2018-04-08T12:23:17.341Z,1865
2018-04-08T12:24:18.089Z,1835
2018-04-08T12:25:18.853Z,1825
2018-04-08T12:26:19.601Z,1810
2018-04-08T12:27:20.368Z,1765
2018-04-08T12:28:21.137Z,1720
2018-04-08T12:29:21.899Z,1810
2018-04-08T12:30:22.651Z,1830
2018-04-08T12:31:23.422Z,1865
2018-04-08T12:32:24.152Z,1910
2018-04-08T12:33:24.904Z,1750
2018-04-08T12:34:25.655Z,1675
2018-04-08T12:35:26.427Z,1620
2018-04-08T12:36:27.213Z,1895
2018-04-08T12:37:27.999Z,2000
2018-04-08T12:38:28.762Z,1990
2018-04-08T12:39:29.516Z,2030
2018-04-08T12:40:30.264Z,2075
2018-04-08T12:41:31.027Z,1945
2018-04-08T12:42:31.811Z,1750
2018-04-08T12:43:32.590Z,1595
2018-04-08T12:44:33.332Z,1750
2018-04-08T12:45:34.085Z,1590
2018-04-08T12:46:34.832Z,1350
2018-04-08T12:47:35.594Z,1570
2018-04-08T12:48:36.351Z,1655
2018-04-08T12:49:37.118Z,1550
2018-04-08T12:50:37.863Z,1365
2018-04-08T12:51:38.628Z,1050
2018-04-08T12:52:39.383Z,965
2018-04-08T12:53:40.143Z,780
2018-04-08T12:54:40.889Z,705
2018-04-08T12:55:41.677Z,690
2018-04-08T12:56:42.435Z,670
2018-04-08T12:57:43.182Z,665
2018-04-08T12:58:43.943Z,680
2018-04-08T12:59:44.693Z,700
2018-04-08T13:00:45.453Z,725
2018-04-08T13:01:46.203Z,740
2018-04-08T13:02:46.966Z,755
2018-04-08T13:03:47.715Z,810
2018-04-08T13:04:48.490Z,785
2018-04-08T13:05:49.244Z,830
2018-04-08T13:06:50.007Z,815
2018-04-08T13:07:50.757Z,775
2018-04-08T13:08:51.518Z,805
2018-04-08T13:09:52.269Z,910
2018-04-08T13:10:53.020Z,845
2018-04-08T13:11:53.798Z,865
2018-04-08T13:12:54.559Z,930
2018-04-08T13:13:55.314Z,1045
2018-04-08T13:14:56.068Z,965
2018-04-08T13:15:56.818Z,1080
2018-04-08T13:16:57.569Z,1285
2018-04-08T13:17:58.319Z,1360
2018-04-08T13:18:59.080Z,1545
2018-04-08T13:19:59.828Z,1610
2018-04-08T13:21:00.589Z,1580
2018-04-08T13:22:01.357Z,1620
2018-04-08T13:23:02.106Z,1675
2018-04-08T13:24:02.878Z,1565
2018-04-08T13:25:03.643Z,1545
2018-04-08T13:26:04.395Z,1655
2018-04-08T13:27:05.170Z,1670
2018-04-08T13:28:05.948Z,1685
2018-04-08T13:29:06.703Z,1535
2018-04-08T13:30:07.485Z,1445
2018-04-08T13:31:08.234Z,1335
2018-04-08T13:32:08.986Z,1615
2018-04-08T13:33:09.773Z,1625
2018-04-08T13:34:10.524Z,1770
2018-04-08T13:35:11.286Z,1600
2018-04-08T13:36:12.086Z,1515
2018-04-08T13:37:12.847Z,970
2018-04-08T13:38:13.597Z,1085
2018-04-08T13:39:14.361Z,1120
2018-04-08T13:40:15.118Z,1135
2018-04-08T13:41:15.877Z,845
2018-04-08T13:42:16.628Z,860
2018-04-08T13:43:17.379Z,745
2018-04-08T13:44:18.142Z,745
2018-04-08T13:45:18.903Z,755
2018-04-08T13:46:19.692Z,745
2018-04-08T13:47:20.476Z,885
2018-04-08T13:48:21.244Z,855
2018-04-08T13:49:21.991Z,915
2018-04-08T13:50:22.746Z,890
2018-04-08T13:51:23.499Z,985
2018-04-08T13:52:24.252Z,940
2018-04-08T13:53:25.017Z,1010
2018-04-08T13:54:25.818Z,1025
2018-04-08T13:55:26.538Z,880
2018-04-08T13:56:27.292Z,910
2018-04-08T13:57:28.048Z,1195
2018-04-08T13:58:28.808Z,1400
2018-04-08T13:59:29.569Z,1490
2018-04-08T14:00:30.321Z,1470
2018-04-08T14:01:31.098Z,1315
2018-04-08T14:02:31.837Z,1370
2018-04-08T14:03:32.610Z,1320
2018-04-08T14:04:33.362Z,1130
2018-04-08T14:05:34.138Z,1240
2018-04-08T14:06:34.900Z,1035
2018-04-08T14:07:35.684Z,805
2018-04-08T14:08:36.433Z,905
2018-04-08T14:09:37.219Z,1165
2018-04-08T14:10:37.983Z,1070
2018-04-08T14:11:38.780Z,1250